TCA7378 SVMG-TTPP
Flight info
| Callsign | TCA7378 |
|---|---|
| Flight time | 0h 31m |
| Altitude | 25000 |
| Route | ESNAP1 ESNAP DCT MEGIR DCT SHARK |
| Aircraft | C25B/M-SDE2E3FGHRWXY/LB1 |
Departure
| Time | 2026-05-09 00:31 |
|---|---|
| Airport | Del Caribe Santiago Mariño International Airport (SVMG) |
Arrival
| Time | 2026-05-09 01:02 |
|---|---|
| Airport | Piarco International Airport (TTPP) |
| Time | Latitude | Longitude | Altitude | Speed | Heading |
|---|---|---|---|---|---|
| 2026-05-09 00:31 | 10.89308 | -63.89117 | 7052 ft | 237 kts | 109° |
| 2026-05-09 00:31 | 10.88720 | -63.87526 | 8307 ft | 244 kts | 110° |
| 2026-05-09 00:31 | 10.88113 | -63.85887 | 9484 ft | 252 kts | 110° |
| 2026-05-09 00:32 | 10.87486 | -63.84195 | 10639 ft | 258 kts | 109° |
| 2026-05-09 00:32 | 10.86850 | -63.82473 | 11810 ft | 263 kts | 109° |
| 2026-05-09 00:32 | 10.86192 | -63.80719 | 12928 ft | 268 kts | 108° |
| 2026-05-09 00:32 | 10.85541 | -63.78947 | 14009 ft | 274 kts | 109° |
| 2026-05-09 00:33 | 10.84855 | -63.77116 | 15068 ft | 280 kts | 109° |
| 2026-05-09 00:33 | 10.84163 | -63.75239 | 16086 ft | 286 kts | 109° |
| 2026-05-09 00:33 | 10.83452 | -63.73330 | 17086 ft | 291 kts | 109° |
| 2026-05-09 00:33 | 10.82728 | -63.71385 | 18046 ft | 297 kts | 109° |
| 2026-05-09 00:34 | 10.81992 | -63.69400 | 18964 ft | 303 kts | 110° |
| 2026-05-09 00:34 | 10.81237 | -63.67371 | 19882 ft | 309 kts | 110° |
| 2026-05-09 00:34 | 10.80471 | -63.65307 | 20749 ft | 315 kts | 110° |
| 2026-05-09 00:34 | 10.79688 | -63.63200 | 21607 ft | 321 kts | 111° |
| 2026-05-09 00:35 | 10.78899 | -63.61084 | 22412 ft | 328 kts | 111° |
| 2026-05-09 00:35 | 10.78085 | -63.58898 | 23227 ft | 334 kts | 112° |
| 2026-05-09 00:35 | 10.77259 | -63.56671 | 24032 ft | 339 kts | 112° |
| 2026-05-09 00:35 | 10.76416 | -63.54412 | 24785 ft | 345 kts | 112° |
| 2026-05-09 00:36 | 10.75536 | -63.52052 | 24925 ft | 371 kts | 112° |
| 2026-05-09 00:36 | 10.74591 | -63.49512 | 24938 ft | 395 kts | 112° |
| 2026-05-09 00:36 | 10.73590 | -63.46832 | 24938 ft | 415 kts | 112° |
| 2026-05-09 00:36 | 10.72550 | -63.44034 | 24939 ft | 430 kts | 112° |
| 2026-05-09 00:37 | 10.71496 | -63.41196 | 24941 ft | 436 kts | 112° |
| 2026-05-09 00:37 | 10.70438 | -63.38359 | 24946 ft | 423 kts | 112° |
| 2026-05-09 00:37 | 10.69411 | -63.35595 | 24945 ft | 413 kts | 112° |
| 2026-05-09 00:37 | 10.68401 | -63.32897 | 24945 ft | 405 kts | 112° |
| 2026-05-09 00:38 | 10.67408 | -63.30242 | 24944 ft | 399 kts | 112° |
| 2026-05-09 00:38 | 10.66431 | -63.27621 | 24941 ft | 394 kts | 112° |
| 2026-05-09 00:38 | 10.65730 | -63.24943 | 24925 ft | 392 kts | 99° |
| 2026-05-09 00:38 | 10.65440 | -63.22204 | 24928 ft | 388 kts | 97° |
| 2026-05-09 00:39 | 10.65150 | -63.19522 | 24930 ft | 386 kts | 97° |
| 2026-05-09 00:39 | 10.64890 | -63.16810 | 24927 ft | 385 kts | 96° |
| 2026-05-09 00:39 | 10.64627 | -63.14105 | 24929 ft | 384 kts | 97° |
| 2026-05-09 00:39 | 10.64355 | -63.11412 | 24929 ft | 383 kts | 97° |
| 2026-05-09 00:40 | 10.64086 | -63.08725 | 24926 ft | 382 kts | 97° |
| 2026-05-09 00:40 | 10.63811 | -63.06045 | 24927 ft | 381 kts | 97° |
| 2026-05-09 00:40 | 10.63546 | -63.03362 | 24928 ft | 381 kts | 97° |
| 2026-05-09 00:41 | 10.63010 | -62.98053 | 24928 ft | 380 kts | 97° |
| 2026-05-09 00:41 | 10.62744 | -62.95386 | 24926 ft | 379 kts | 97° |
| 2026-05-09 00:41 | 10.62478 | -62.92721 | 24926 ft | 379 kts | 97° |
| 2026-05-09 00:41 | 10.62205 | -62.90050 | 24927 ft | 380 kts | 97° |
| 2026-05-09 00:42 | 10.61937 | -62.87382 | 24928 ft | 380 kts | 97° |
| 2026-05-09 00:42 | 10.61668 | -62.84710 | 24925 ft | 380 kts | 97° |
| 2026-05-09 00:42 | 10.61398 | -62.82039 | 24939 ft | 380 kts | 97° |
| 2026-05-09 00:42 | 10.61129 | -62.79364 | 24937 ft | 380 kts | 97° |
| 2026-05-09 00:43 | 10.60859 | -62.76727 | 24938 ft | 380 kts | 97° |
| 2026-05-09 00:43 | 10.60591 | -62.74052 | 24937 ft | 381 kts | 97° |
| 2026-05-09 00:43 | 10.60316 | -62.71373 | 24937 ft | 381 kts | 97° |
| 2026-05-09 00:43 | 10.60044 | -62.68690 | 24938 ft | 381 kts | 97° |
| 2026-05-09 00:44 | 10.59775 | -62.66013 | 24847 ft | 383 kts | 97° |
| 2026-05-09 00:44 | 10.59495 | -62.63276 | 24391 ft | 396 kts | 97° |
| 2026-05-09 00:44 | 10.59205 | -62.60456 | 23860 ft | 406 kts | 97° |
| 2026-05-09 00:44 | 10.58912 | -62.57568 | 23314 ft | 415 kts | 97° |
| 2026-05-09 00:45 | 10.58621 | -62.54631 | 22758 ft | 420 kts | 97° |
| 2026-05-09 00:45 | 10.58311 | -62.51712 | 22200 ft | 423 kts | 97° |
| 2026-05-09 00:45 | 10.58014 | -62.48751 | 21633 ft | 414 kts | 96° |
| 2026-05-09 00:45 | 10.57722 | -62.45914 | 21095 ft | 394 kts | 97° |
| 2026-05-09 00:46 | 10.57448 | -62.43197 | 20579 ft | 379 kts | 96° |
| 2026-05-09 00:46 | 10.57176 | -62.40577 | 20081 ft | 366 kts | 96° |
| 2026-05-09 00:46 | 10.56919 | -62.38036 | 19601 ft | 356 kts | 96° |
| 2026-05-09 00:46 | 10.56666 | -62.35567 | 19134 ft | 347 kts | 96° |
| 2026-05-09 00:47 | 10.56412 | -62.33158 | 18676 ft | 339 kts | 96° |
| 2026-05-09 00:47 | 10.56179 | -62.30830 | 18236 ft | 333 kts | 95° |
| 2026-05-09 00:47 | 10.55942 | -62.28513 | 17798 ft | 327 kts | 95° |
| 2026-05-09 00:47 | 10.55706 | -62.26240 | 17367 ft | 322 kts | 95° |
| 2026-05-09 00:48 | 10.55474 | -62.23991 | 16942 ft | 317 kts | 95° |
| 2026-05-09 00:48 | 10.55243 | -62.21783 | 16524 ft | 313 kts | 95° |
| 2026-05-09 00:48 | 10.55022 | -62.19594 | 16110 ft | 309 kts | 95° |
| 2026-05-09 00:48 | 10.54798 | -62.17431 | 15701 ft | 306 kts | 95° |
| 2026-05-09 00:49 | 10.54579 | -62.15288 | 15296 ft | 304 kts | 95° |
| 2026-05-09 00:49 | 10.54358 | -62.13194 | 14899 ft | 301 kts | 95° |
| 2026-05-09 00:49 | 10.54145 | -62.11090 | 14495 ft | 298 kts | 95° |
| 2026-05-09 00:49 | 10.53928 | -62.09004 | 14105 ft | 296 kts | 95° |
| 2026-05-09 00:50 | 10.53713 | -62.06935 | 13714 ft | 293 kts | 95° |
| 2026-05-09 00:50 | 10.53498 | -62.04885 | 13325 ft | 291 kts | 94° |
| 2026-05-09 00:50 | 10.53291 | -62.02846 | 12937 ft | 289 kts | 94° |
| 2026-05-09 00:50 | 10.53080 | -62.00821 | 12555 ft | 287 kts | 94° |
| 2026-05-09 00:51 | 10.52871 | -61.98811 | 12181 ft | 285 kts | 94° |
| 2026-05-09 00:51 | 10.52663 | -61.96814 | 11796 ft | 283 kts | 94° |
| 2026-05-09 00:51 | 10.52463 | -61.94853 | 11427 ft | 282 kts | 94° |
| 2026-05-09 00:51 | 10.52252 | -61.92876 | 11050 ft | 281 kts | 94° |
| 2026-05-09 00:52 | 10.52052 | -61.90908 | 10678 ft | 279 kts | 95° |
| 2026-05-09 00:52 | 10.51845 | -61.88953 | 10307 ft | 278 kts | 95° |
| 2026-05-09 00:52 | 10.51660 | -61.87004 | 9937 ft | 276 kts | 92° |
| 2026-05-09 00:52 | 10.51925 | -61.85105 | 9568 ft | 272 kts | 72° |
| 2026-05-09 00:53 | 10.52528 | -61.83296 | 9216 ft | 271 kts | 71° |
| 2026-05-09 00:53 | 10.53102 | -61.81474 | 8858 ft | 271 kts | 73° |
| 2026-05-09 00:53 | 10.53630 | -61.79636 | 8499 ft | 271 kts | 73° |
| 2026-05-09 00:53 | 10.54153 | -61.77832 | 8144 ft | 269 kts | 73° |
| 2026-05-09 00:54 | 10.54693 | -61.76022 | 7787 ft | 267 kts | 73° |
| 2026-05-09 00:54 | 10.55228 | -61.74223 | 7443 ft | 265 kts | 73° |
| 2026-05-09 00:54 | 10.55756 | -61.72430 | 7091 ft | 264 kts | 73° |
| 2026-05-09 00:54 | 10.56281 | -61.70647 | 6729 ft | 263 kts | 73° |
| 2026-05-09 00:55 | 10.56805 | -61.68877 | 6391 ft | 261 kts | 73° |
| 2026-05-09 00:55 | 10.57327 | -61.67117 | 6045 ft | 260 kts | 73° |
| 2026-05-09 00:55 | 10.57831 | -61.65385 | 5704 ft | 259 kts | 73° |
| 2026-05-09 00:55 | 10.58347 | -61.63643 | 5363 ft | 258 kts | 73° |
| 2026-05-09 00:56 | 10.58866 | -61.61902 | 5019 ft | 256 kts | 73° |
| 2026-05-09 00:56 | 10.59091 | -61.60128 | 4673 ft | 254 kts | 91° |
| 2026-05-09 00:56 | 10.59068 | -61.58345 | 4345 ft | 252 kts | 86° |
| 2026-05-09 00:56 | 10.59189 | -61.56573 | 4057 ft | 249 kts | 86° |
| 2026-05-09 00:57 | 10.59214 | -61.54852 | 4047 ft | 238 kts | 89° |
| 2026-05-09 00:57 | 10.59245 | -61.53210 | 4043 ft | 229 kts | 87° |
| 2026-05-09 00:57 | 10.59292 | -61.51639 | 4037 ft | 222 kts | 88° |
| 2026-05-09 00:57 | 10.59320 | -61.50082 | 4035 ft | 218 kts | 88° |
| 2026-05-09 00:58 | 10.59366 | -61.48552 | 4034 ft | 215 kts | 88° |
| 2026-05-09 00:58 | 10.59450 | -61.47064 | 3995 ft | 194 kts | 84° |
| 2026-05-09 00:58 | 10.59491 | -61.45928 | 3682 ft | 137 kts | 89° |
| 2026-05-09 00:58 | 10.59507 | -61.45036 | 3267 ft | 119 kts | 87° |
| 2026-05-09 00:59 | 10.59509 | -61.44218 | 2777 ft | 116 kts | 87° |
| 2026-05-09 00:59 | 10.59513 | -61.43395 | 2240 ft | 117 kts | 89° |
| 2026-05-09 00:59 | 10.59504 | -61.42561 | 1733 ft | 117 kts | 88° |
| 2026-05-09 00:59 | 10.59524 | -61.41736 | 1407 ft | 116 kts | 89° |
| 2026-05-09 01:00 | 10.59507 | -61.40942 | 1305 ft | 112 kts | 90° |
| 2026-05-09 01:00 | 10.59525 | -61.40151 | 1067 ft | 113 kts | 89° |
| 2026-05-09 01:00 | 10.59515 | -61.39361 | 857 ft | 109 kts | 91° |
| 2026-05-09 01:00 | 10.59527 | -61.38610 | 713 ft | 104 kts | 87° |
| 2026-05-09 01:01 | 10.59527 | -61.37868 | 577 ft | 106 kts | 92° |
| 2026-05-09 01:01 | 10.59521 | -61.37123 | 431 ft | 105 kts | 87° |
| 2026-05-09 01:01 | 10.59550 | -61.36383 | 299 ft | 104 kts | 89° |
| 2026-05-09 01:01 | 10.59544 | -61.35641 | 147 ft | 106 kts | 91° |
| 2026-05-09 01:02 | 10.59536 | -61.34907 | 23 ft | 104 kts | 90° |
| 2026-05-09 01:02 | 10.59540 | -61.34287 | 13 ft | 63 kts | 92° |
| 2026-05-09 01:02 | 10.59537 | -61.34045 | 11 ft | 19 kts | 89° |
| 2026-05-09 01:02 | 10.59503 | -61.33973 | 10 ft | 9 kts | 234° |
| 2026-05-09 01:03 | 10.59458 | -61.34026 | 11 ft | 11 kts | 229° |
| 2026-05-09 01:03 | 10.59406 | -61.34089 | 11 ft | 12 kts | 231° |
| 2026-05-09 01:03 | 10.59386 | -61.34178 | 12 ft | 14 kts | 269° |
| 2026-05-09 01:03 | 10.59362 | -61.34254 | 12 ft | 11 kts | 217° |
| 2026-05-09 01:04 | 10.59350 | -61.34306 | 12 ft | 8 kts | 315° |
| 2026-05-09 01:04 | 10.59359 | -61.34316 | 12 ft | 0 kts | 308° |